Aeroporto :
LOGIN :

Iscrizione | Disclaimer

   EN    FR    IT 

 










Sommario :    VFR   VFR Marginale   IFR   IFR Intensivo   IFR Molto Intensivo
Visibilità : 
Base nubi : 
>= 8 km
>= 3000ft
5 / 8 km
1000 / 3000 ft
1500m / 5 km
500 / 1000 ft
800 / 1500m
200 / 500 ft
< 800m
< 200 ft
Simboli :   Temporali  Nebbia  Neve Forte  Precipitazioni Forti  Vento > 20 kt
SIGMETs :   Varie  Temporali  Ghiacco  Turbolenza  Onda orograficha  Ceneri Vulcaniche






- Altitudine del aeroporto : 330 ft
- Codice IATA : LVA


LFOV - Laval-Entrammes

ULTIMO METAR :
  • 121300Z AUTO 26011KT 9999 BKN031 BKN037 OVC043 10/05 Q1006

METARs OBSOLETI :
  • 121230Z AUTO 25012KT 210V280 9999 FEW027 BKN036 BKN086 10/05 Q1006
  • 121200Z AUTO 26011KT 210V290 9999 FEW025 SCT035 BKN041 10/05 Q1006
  • 121130Z AUTO 28010KT 250V310 9999 BKN023 BKN044 BKN074 10/05 Q1007
  • 121100Z AUTO 28010KT 260V320 9999 SCT020 SCT030 BKN041 08/05 Q1007
  • 121030Z AUTO 27010KT 250V310 9999 BKN022 BKN032 BKN038 09/05 Q1007

TAF N/A



MetMap, La meteo Aeronautica in un colpo d'occhio ! - Copyright ORBIFLY Dicembre 2007 - Disclaimer

ORBIFLY MET'MAP TEAM :

Programmazione e sviluppo : Alexandra Zaïnal
Concezione e sviluppo : Baudouin d'Aumeries
Co-Programmazione e sviluppo : Marc-Olivier Méhu
Supporto tecnico e logistico : Manuel Goepfert
Aiuto per la traduzione : Arnaldo La Scala

Contatto : metmap@orbifly.com




FONTI E CREDITI :

   NOAA